sensor_id;sensor_type;location;lat;lon;timestamp;P1;durP1;ratioP1;P2;durP2;ratioP2
43670;SDS011;29267;50.906;7.248;2023-11-21T00:01:50;12.55;;;5.50;;
43670;SDS011;29267;50.906;7.248;2023-11-21T00:04:17;14.32;;;6.53;;
43670;SDS011;29267;50.906;7.248;2023-11-21T00:06:43;10.15;;;5.78;;
43670;SDS011;29267;50.906;7.248;2023-11-21T00:09:12;10.38;;;6.13;;
43670;SDS011;29267;50.906;7.248;2023-11-21T00:11:41;10.32;;;5.03;;
43670;SDS011;29267;50.906;7.248;2023-11-21T00:14:12;13.45;;;6.13;;
43670;SDS011;29267;50.906;7.248;2023-11-21T00:16:40;15.73;;;6.50;;
43670;SDS011;29267;50.906;7.248;2023-11-21T00:19:09;12.65;;;6.10;;
43670;SDS011;29267;50.906;7.248;2023-11-21T00:21:35;15.80;;;5.88;;
43670;SDS011;29267;50.906;7.248;2023-11-21T00:24:01;12.90;;;6.15;;
43670;SDS011;29267;50.906;7.248;2023-11-21T00:26:27;13.32;;;6.88;;
43670;SDS011;29267;50.906;7.248;2023-11-21T00:28:53;12.45;;;6.95;;
43670;SDS011;29267;50.906;7.248;2023-11-21T00:31:19;17.55;;;7.07;;
43670;SDS011;29267;50.906;7.248;2023-11-21T00:33:44;11.85;;;5.70;;
43670;SDS011;29267;50.906;7.248;2023-11-21T00:36:10;16.63;;;6.10;;
43670;SDS011;29267;50.906;7.248;2023-11-21T00:38:36;10.52;;;5.85;;
43670;SDS011;29267;50.906;7.248;2023-11-21T00:41:05;12.43;;;6.60;;
43670;SDS011;29267;50.906;7.248;2023-11-21T00:43:31;11.45;;;6.63;;
43670;SDS011;29267;50.906;7.248;2023-11-21T00:45:58;13.75;;;5.85;;
43670;SDS011;29267;50.906;7.248;2023-11-21T00:48:24;10.82;;;5.85;;
43670;SDS011;29267;50.906;7.248;2023-11-21T00:50:50;12.80;;;6.00;;
43670;SDS011;29267;50.906;7.248;2023-11-21T00:53:16;14.50;;;6.82;;
43670;SDS011;29267;50.906;7.248;2023-11-21T00:55:42;19.52;;;6.43;;
43670;SDS011;29267;50.906;7.248;2023-11-21T00:58:08;15.52;;;7.38;;
43670;SDS011;29267;50.906;7.248;2023-11-21T01:00:34;14.77;;;6.50;;
43670;SDS011;29267;50.906;7.248;2023-11-21T01:02:59;14.05;;;7.45;;
43670;SDS011;29267;50.906;7.248;2023-11-21T01:05:25;11.73;;;6.70;;
43670;SDS011;29267;50.906;7.248;2023-11-21T01:07:52;13.68;;;6.80;;
43670;SDS011;29267;50.906;7.248;2023-11-21T01:10:18;14.48;;;7.50;;
43670;SDS011;29267;50.906;7.248;2023-11-21T01:12:43;14.80;;;6.93;;
43670;SDS011;29267;50.906;7.248;2023-11-21T01:15:09;16.45;;;6.95;;
43670;SDS011;29267;50.906;7.248;2023-11-21T01:17:37;11.20;;;6.47;;
43670;SDS011;29267;50.906;7.248;2023-11-21T01:20:03;13.70;;;6.70;;
43670;SDS011;29267;50.906;7.248;2023-11-21T01:22:37;16.42;;;7.20;;
43670;SDS011;29267;50.906;7.248;2023-11-21T01:25:03;11.05;;;6.18;;
43670;SDS011;29267;50.906;7.248;2023-11-21T01:27:32;18.38;;;7.22;;
43670;SDS011;29267;50.906;7.248;2023-11-21T01:29:59;15.07;;;7.15;;
43670;SDS011;29267;50.906;7.248;2023-11-21T01:32:25;12.77;;;6.20;;
43670;SDS011;29267;50.906;7.248;2023-11-21T01:34:51;19.65;;;7.25;;
43670;SDS011;29267;50.906;7.248;2023-11-21T01:37:17;14.02;;;7.28;;
43670;SDS011;29267;50.906;7.248;2023-11-21T01:39:46;13.32;;;7.65;;
43670;SDS011;29267;50.906;7.248;2023-11-21T01:42:12;12.50;;;6.82;;
43670;SDS011;29267;50.906;7.248;2023-11-21T01:44:38;15.07;;;7.25;;
43670;SDS011;29267;50.906;7.248;2023-11-21T01:47:05;14.07;;;7.10;;
43670;SDS011;29267;50.906;7.248;2023-11-21T01:49:32;12.38;;;7.13;;
43670;SDS011;29267;50.906;7.248;2023-11-21T01:51:58;13.45;;;6.63;;
43670;SDS011;29267;50.906;7.248;2023-11-21T01:54:34;12.88;;;6.80;;
43670;SDS011;29267;50.906;7.248;2023-11-21T01:57:02;16.67;;;6.88;;
43670;SDS011;29267;50.906;7.248;2023-11-21T01:59:37;13.98;;;6.20;;
43670;SDS011;29267;50.906;7.248;2023-11-21T02:02:07;13.77;;;6.85;;
43670;SDS011;29267;50.906;7.248;2023-11-21T02:04:35;12.55;;;6.65;;
43670;SDS011;29267;50.906;7.248;2023-11-21T02:07:38;13.80;;;6.97;;
43670;SDS011;29267;50.906;7.248;2023-11-21T02:10:05;14.43;;;6.90;;
43670;SDS011;29267;50.906;7.248;2023-11-21T02:12:32;13.48;;;5.85;;
43670;SDS011;29267;50.906;7.248;2023-11-21T02:15:00;16.00;;;6.38;;
43670;SDS011;29267;50.906;7.248;2023-11-21T02:17:30;19.13;;;6.00;;
43670;SDS011;29267;50.906;7.248;2023-11-21T02:19:57;15.65;;;5.90;;
43670;SDS011;29267;50.906;7.248;2023-11-21T02:22:24;11.82;;;6.43;;
43670;SDS011;29267;50.906;7.248;2023-11-21T02:24:55;12.55;;;6.50;;
43670;SDS011;29267;50.906;7.248;2023-11-21T02:27:23;12.32;;;6.82;;
43670;SDS011;29267;50.906;7.248;2023-11-21T02:29:49;17.85;;;6.68;;
43670;SDS011;29267;50.906;7.248;2023-11-21T02:32:15;13.45;;;6.18;;
43670;SDS011;29267;50.906;7.248;2023-11-21T02:34:44;15.63;;;6.03;;
43670;SDS011;29267;50.906;7.248;2023-11-21T02:37:10;12.43;;;6.57;;
43670;SDS011;29267;50.906;7.248;2023-11-21T02:39:35;19.80;;;7.65;;
43670;SDS011;29267;50.906;7.248;2023-11-21T02:42:01;17.48;;;7.43;;
43670;SDS011;29267;50.906;7.248;2023-11-21T02:44:27;13.05;;;6.75;;
43670;SDS011;29267;50.906;7.248;2023-11-21T02:46:53;13.85;;;6.57;;
43670;SDS011;29267;50.906;7.248;2023-11-21T02:49:18;19.63;;;7.80;;
43670;SDS011;29267;50.906;7.248;2023-11-21T02:51:44;16.35;;;7.35;;
43670;SDS011;29267;50.906;7.248;2023-11-21T02:54:10;14.13;;;6.65;;
43670;SDS011;29267;50.906;7.248;2023-11-21T02:56:36;17.98;;;7.07;;
43670;SDS011;29267;50.906;7.248;2023-11-21T02:59:02;18.60;;;6.45;;
43670;SDS011;29267;50.906;7.248;2023-11-21T03:01:28;18.00;;;6.95;;
43670;SDS011;29267;50.906;7.248;2023-11-21T03:03:54;14.07;;;7.03;;
43670;SDS011;29267;50.906;7.248;2023-11-21T03:06:20;16.45;;;7.10;;
43670;SDS011;29267;50.906;7.248;2023-11-21T03:08:46;19.95;;;7.47;;
43670;SDS011;29267;50.906;7.248;2023-11-21T03:11:13;14.85;;;8.07;;
43670;SDS011;29267;50.906;7.248;2023-11-21T03:13:40;13.43;;;6.47;;
43670;SDS011;29267;50.906;7.248;2023-11-21T03:16:09;17.17;;;7.63;;
43670;SDS011;29267;50.906;7.248;2023-11-21T03:18:36;16.75;;;6.80;;
43670;SDS011;29267;50.906;7.248;2023-11-21T03:21:02;17.20;;;8.20;;
43670;SDS011;29267;50.906;7.248;2023-11-21T03:23:28;19.92;;;7.55;;
43670;SDS011;29267;50.906;7.248;2023-11-21T03:25:54;14.38;;;7.20;;
43670;SDS011;29267;50.906;7.248;2023-11-21T03:28:20;15.88;;;7.45;;
43670;SDS011;29267;50.906;7.248;2023-11-21T03:30:46;19.30;;;8.45;;
43670;SDS011;29267;50.906;7.248;2023-11-21T03:33:12;15.40;;;7.95;;
43670;SDS011;29267;50.906;7.248;2023-11-21T03:35:38;14.30;;;7.47;;
43670;SDS011;29267;50.906;7.248;2023-11-21T03:38:03;22.65;;;9.10;;
43670;SDS011;29267;50.906;7.248;2023-11-21T03:40:29;20.05;;;8.88;;
43670;SDS011;29267;50.906;7.248;2023-11-21T03:42:56;18.60;;;8.85;;
43670;SDS011;29267;50.906;7.248;2023-11-21T03:45:22;19.55;;;9.48;;
43670;SDS011;29267;50.906;7.248;2023-11-21T03:47:48;20.73;;;8.68;;
43670;SDS011;29267;50.906;7.248;2023-11-21T03:50:14;20.05;;;8.52;;
43670;SDS011;29267;50.906;7.248;2023-11-21T03:52:40;16.25;;;8.45;;
43670;SDS011;29267;50.906;7.248;2023-11-21T03:55:06;14.68;;;8.00;;
43670;SDS011;29267;50.906;7.248;2023-11-21T03:57:32;18.38;;;8.07;;
43670;SDS011;29267;50.906;7.248;2023-11-21T03:59:58;23.42;;;8.35;;
43670;SDS011;29267;50.906;7.248;2023-11-21T04:02:24;20.60;;;9.70;;
43670;SDS011;29267;50.906;7.248;2023-11-21T04:04:51;22.20;;;8.50;;
43670;SDS011;29267;50.906;7.248;2023-11-21T04:07:17;17.30;;;8.93;;
43670;SDS011;29267;50.906;7.248;2023-11-21T04:09:42;16.27;;;7.55;;
43670;SDS011;29267;50.906;7.248;2023-11-21T04:12:08;16.33;;;7.90;;
43670;SDS011;29267;50.906;7.248;2023-11-21T04:14:34;28.45;;;10.63;;
43670;SDS011;29267;50.906;7.248;2023-11-21T04:17:00;23.80;;;8.88;;
43670;SDS011;29267;50.906;7.248;2023-11-21T04:19:26;20.42;;;9.02;;
43670;SDS011;29267;50.906;7.248;2023-11-21T04:21:52;21.58;;;9.07;;
43670;SDS011;29267;50.906;7.248;2023-11-21T04:24:18;23.10;;;7.93;;
43670;SDS011;29267;50.906;7.248;2023-11-21T04:26:44;21.80;;;8.82;;
43670;SDS011;29267;50.906;7.248;2023-11-21T04:29:10;21.13;;;8.70;;
43670;SDS011;29267;50.906;7.248;2023-11-21T04:31:36;33.13;;;9.48;;
43670;SDS011;29267;50.906;7.248;2023-11-21T04:34:02;19.35;;;8.85;;
43670;SDS011;29267;50.906;7.248;2023-11-21T04:36:29;15.27;;;7.25;;
43670;SDS011;29267;50.906;7.248;2023-11-21T04:38:56;21.20;;;9.05;;
43670;SDS011;29267;50.906;7.248;2023-11-21T04:41:21;24.83;;;9.75;;
43670;SDS011;29267;50.906;7.248;2023-11-21T04:43:47;29.10;;;10.18;;
43670;SDS011;29267;50.906;7.248;2023-11-21T04:46:14;22.38;;;10.05;;
43670;SDS011;29267;50.906;7.248;2023-11-21T04:48:42;17.80;;;10.27;;
43670;SDS011;29267;50.906;7.248;2023-11-21T04:51:09;18.67;;;9.60;;
43670;SDS011;29267;50.906;7.248;2023-11-21T04:53:36;22.40;;;10.13;;
43670;SDS011;29267;50.906;7.248;2023-11-21T04:56:02;17.05;;;10.35;;
43670;SDS011;29267;50.906;7.248;2023-11-21T04:58:28;28.27;;;10.40;;
43670;SDS011;29267;50.906;7.248;2023-11-21T05:00:55;26.75;;;10.93;;
43670;SDS011;29267;50.906;7.248;2023-11-21T05:03:21;22.98;;;9.93;;
43670;SDS011;29267;50.906;7.248;2023-11-21T05:05:49;27.63;;;11.38;;
43670;SDS011;29267;50.906;7.248;2023-11-21T05:08:16;25.02;;;10.00;;
43670;SDS011;29267;50.906;7.248;2023-11-21T05:10:42;28.90;;;11.05;;
43670;SDS011;29267;50.906;7.248;2023-11-21T05:13:08;20.58;;;11.40;;
43670;SDS011;29267;50.906;7.248;2023-11-21T05:15:35;20.70;;;10.50;;
43670;SDS011;29267;50.906;7.248;2023-11-21T05:18:01;28.65;;;11.07;;
43670;SDS011;29267;50.906;7.248;2023-11-21T05:20:28;26.08;;;10.90;;
43670;SDS011;29267;50.906;7.248;2023-11-21T05:22:54;27.00;;;10.80;;
43670;SDS011;29267;50.906;7.248;2023-11-21T05:25:19;19.90;;;10.18;;
43670;SDS011;29267;50.906;7.248;2023-11-21T05:27:46;22.67;;;10.10;;
43670;SDS011;29267;50.906;7.248;2023-11-21T05:30:12;25.88;;;10.18;;
43670;SDS011;29267;50.906;7.248;2023-11-21T05:32:39;20.92;;;9.98;;
43670;SDS011;29267;50.906;7.248;2023-11-21T05:35:07;26.05;;;11.45;;
43670;SDS011;29267;50.906;7.248;2023-11-21T05:37:37;19.95;;;10.25;;
43670;SDS011;29267;50.906;7.248;2023-11-21T05:40:07;23.42;;;10.88;;
43670;SDS011;29267;50.906;7.248;2023-11-21T05:42:34;21.10;;;10.55;;
43670;SDS011;29267;50.906;7.248;2023-11-21T05:45:01;28.35;;;12.10;;
43670;SDS011;29267;50.906;7.248;2023-11-21T05:47:37;31.67;;;13.27;;
43670;SDS011;29267;50.906;7.248;2023-11-21T05:50:04;30.05;;;13.18;;
43670;SDS011;29267;50.906;7.248;2023-11-21T05:52:30;29.42;;;12.40;;
43670;SDS011;29267;50.906;7.248;2023-11-21T05:55:00;36.20;;;13.07;;
43670;SDS011;29267;50.906;7.248;2023-11-21T05:57:25;26.13;;;12.02;;
43670;SDS011;29267;50.906;7.248;2023-11-21T05:59:51;27.67;;;12.00;;
43670;SDS011;29267;50.906;7.248;2023-11-21T06:02:17;30.45;;;14.13;;
43670;SDS011;29267;50.906;7.248;2023-11-21T06:04:44;38.60;;;15.18;;
43670;SDS011;29267;50.906;7.248;2023-11-21T06:07:10;35.85;;;15.30;;
43670;SDS011;29267;50.906;7.248;2023-11-21T06:09:36;35.08;;;13.18;;
43670;SDS011;29267;50.906;7.248;2023-11-21T06:12:02;31.67;;;14.90;;
43670;SDS011;29267;50.906;7.248;2023-11-21T06:14:29;41.33;;;15.13;;
43670;SDS011;29267;50.906;7.248;2023-11-21T06:16:54;38.10;;;14.73;;
43670;SDS011;29267;50.906;7.248;2023-11-21T06:19:21;42.30;;;15.10;;
43670;SDS011;29267;50.906;7.248;2023-11-21T06:21:47;38.58;;;14.93;;
43670;SDS011;29267;50.906;7.248;2023-11-21T06:24:13;47.83;;;16.55;;
43670;SDS011;29267;50.906;7.248;2023-11-21T06:26:40;49.30;;;17.45;;
43670;SDS011;29267;50.906;7.248;2023-11-21T06:29:06;54.45;;;20.33;;
43670;SDS011;29267;50.906;7.248;2023-11-21T06:31:32;50.60;;;18.35;;
43670;SDS011;29267;50.906;7.248;2023-11-21T06:33:58;50.78;;;18.67;;
43670;SDS011;29267;50.906;7.248;2023-11-21T06:36:24;53.70;;;19.02;;
43670;SDS011;29267;50.906;7.248;2023-11-21T06:38:51;60.55;;;20.33;;
43670;SDS011;29267;50.906;7.248;2023-11-21T06:41:17;60.30;;;22.23;;
43670;SDS011;29267;50.906;7.248;2023-11-21T06:43:43;56.35;;;21.23;;
43670;SDS011;29267;50.906;7.248;2023-11-21T06:46:11;48.22;;;18.40;;
43670;SDS011;29267;50.906;7.248;2023-11-21T06:48:40;63.67;;;19.92;;
43670;SDS011;29267;50.906;7.248;2023-11-21T06:51:07;56.03;;;20.50;;
43670;SDS011;29267;50.906;7.248;2023-11-21T06:53:33;59.80;;;22.52;;
43670;SDS011;29267;50.906;7.248;2023-11-21T06:56:00;65.97;;;24.80;;
43670;SDS011;29267;50.906;7.248;2023-11-21T06:58:26;60.83;;;23.63;;
43670;SDS011;29267;50.906;7.248;2023-11-21T07:00:52;61.47;;;24.02;;
43670;SDS011;29267;50.906;7.248;2023-11-21T07:03:18;48.45;;;20.00;;
43670;SDS011;29267;50.906;7.248;2023-11-21T07:05:44;45.30;;;18.10;;
43670;SDS011;29267;50.906;7.248;2023-11-21T07:08:10;47.08;;;18.08;;
43670;SDS011;29267;50.906;7.248;2023-11-21T07:10:37;42.33;;;17.23;;
43670;SDS011;29267;50.906;7.248;2023-11-21T07:13:04;39.17;;;16.42;;
43670;SDS011;29267;50.906;7.248;2023-11-21T07:15:29;44.67;;;16.35;;
43670;SDS011;29267;50.906;7.248;2023-11-21T07:17:55;33.38;;;14.57;;
43670;SDS011;29267;50.906;7.248;2023-11-21T07:20:23;31.48;;;13.45;;
43670;SDS011;29267;50.906;7.248;2023-11-21T07:22:49;40.50;;;14.65;;
43670;SDS011;29267;50.906;7.248;2023-11-21T07:25:15;42.67;;;16.02;;
43670;SDS011;29267;50.906;7.248;2023-11-21T07:27:41;35.92;;;14.90;;
43670;SDS011;29267;50.906;7.248;2023-11-21T07:30:07;36.83;;;13.38;;
43670;SDS011;29267;50.906;7.248;2023-11-21T07:32:34;30.15;;;12.35;;
43670;SDS011;29267;50.906;7.248;2023-11-21T07:35:00;37.13;;;13.70;;
43670;SDS011;29267;50.906;7.248;2023-11-21T07:37:26;39.42;;;14.77;;
43670;SDS011;29267;50.906;7.248;2023-11-21T07:39:55;37.08;;;15.25;;
43670;SDS011;29267;50.906;7.248;2023-11-21T07:42:22;40.55;;;15.27;;
43670;SDS011;29267;50.906;7.248;2023-11-21T07:44:52;35.45;;;14.80;;
43670;SDS011;29267;50.906;7.248;2023-11-21T07:47:18;35.45;;;13.80;;
43670;SDS011;29267;50.906;7.248;2023-11-21T07:49:44;39.50;;;12.55;;
43670;SDS011;29267;50.906;7.248;2023-11-21T07:52:10;33.95;;;13.40;;
43670;SDS011;29267;50.906;7.248;2023-11-21T07:54:36;33.88;;;12.88;;
43670;SDS011;29267;50.906;7.248;2023-11-21T07:57:01;26.25;;;12.80;;
43670;SDS011;29267;50.906;7.248;2023-11-21T07:59:29;26.92;;;12.40;;
43670;SDS011;29267;50.906;7.248;2023-11-21T08:01:55;28.02;;;11.23;;
43670;SDS011;29267;50.906;7.248;2023-11-21T08:04:21;25.85;;;11.35;;
43670;SDS011;29267;50.906;7.248;2023-11-21T08:06:47;29.00;;;11.77;;
43670;SDS011;29267;50.906;7.248;2023-11-21T08:09:13;28.33;;;12.05;;
43670;SDS011;29267;50.906;7.248;2023-11-21T08:11:40;23.55;;;11.30;;
43670;SDS011;29267;50.906;7.248;2023-11-21T08:14:07;23.88;;;10.75;;
43670;SDS011;29267;50.906;7.248;2023-11-21T08:16:32;27.88;;;11.13;;
43670;SDS011;29267;50.906;7.248;2023-11-21T08:18:58;21.70;;;10.07;;
43670;SDS011;29267;50.906;7.248;2023-11-21T08:21:24;18.23;;;10.52;;
43670;SDS011;29267;50.906;7.248;2023-11-21T08:23:54;24.95;;;11.50;;
43670;SDS011;29267;50.906;7.248;2023-11-21T08:26:21;24.42;;;11.70;;
43670;SDS011;29267;50.906;7.248;2023-11-21T08:28:47;21.02;;;10.82;;
43670;SDS011;29267;50.906;7.248;2023-11-21T08:31:13;24.83;;;11.18;;
43670;SDS011;29267;50.906;7.248;2023-11-21T08:33:39;24.08;;;10.93;;
43670;SDS011;29267;50.906;7.248;2023-11-21T08:36:08;36.55;;;11.80;;
43670;SDS011;29267;50.906;7.248;2023-11-21T08:38:36;21.90;;;12.10;;
43670;SDS011;29267;50.906;7.248;2023-11-21T08:41:06;25.23;;;11.57;;
43670;SDS011;29267;50.906;7.248;2023-11-21T08:43:35;30.98;;;13.77;;
43670;SDS011;29267;50.906;7.248;2023-11-21T08:46:05;33.40;;;15.57;;
43670;SDS011;29267;50.906;7.248;2023-11-21T08:48:35;35.13;;;14.35;;
43670;SDS011;29267;50.906;7.248;2023-11-21T08:51:01;32.78;;;13.18;;
43670;SDS011;29267;50.906;7.248;2023-11-21T08:53:28;33.35;;;14.73;;
43670;SDS011;29267;50.906;7.248;2023-11-21T08:55:59;29.05;;;12.95;;
43670;SDS011;29267;50.906;7.248;2023-11-21T08:58:25;33.47;;;14.57;;
43670;SDS011;29267;50.906;7.248;2023-11-21T09:00:51;41.60;;;13.90;;
43670;SDS011;29267;50.906;7.248;2023-11-21T09:03:17;37.00;;;14.88;;
43670;SDS011;29267;50.906;7.248;2023-11-21T09:05:48;35.00;;;14.88;;
43670;SDS011;29267;50.906;7.248;2023-11-21T09:08:14;35.33;;;16.38;;
43670;SDS011;29267;50.906;7.248;2023-11-21T09:10:39;36.08;;;15.10;;
43670;SDS011;29267;50.906;7.248;2023-11-21T09:13:07;33.20;;;14.35;;
43670;SDS011;29267;50.906;7.248;2023-11-21T09:15:34;35.67;;;15.10;;
43670;SDS011;29267;50.906;7.248;2023-11-21T09:18:00;33.28;;;15.63;;
43670;SDS011;29267;50.906;7.248;2023-11-21T09:20:27;28.20;;;13.35;;
43670;SDS011;29267;50.906;7.248;2023-11-21T09:22:53;36.92;;;14.90;;
43670;SDS011;29267;50.906;7.248;2023-11-21T09:25:20;40.65;;;16.13;;
43670;SDS011;29267;50.906;7.248;2023-11-21T09:27:46;36.75;;;15.23;;
43670;SDS011;29267;50.906;7.248;2023-11-21T09:30:12;30.77;;;14.77;;
43670;SDS011;29267;50.906;7.248;2023-11-21T09:32:39;41.35;;;15.70;;
43670;SDS011;29267;50.906;7.248;2023-11-21T09:35:06;42.75;;;16.17;;
43670;SDS011;29267;50.906;7.248;2023-11-21T09:37:34;35.42;;;15.60;;
43670;SDS011;29267;50.906;7.248;2023-11-21T09:40:03;41.22;;;16.27;;
43670;SDS011;29267;50.906;7.248;2023-11-21T09:42:32;37.20;;;15.07;;
43670;SDS011;29267;50.906;7.248;2023-11-21T09:47:47;31.23;;;14.40;;
43670;SDS011;29267;50.906;7.248;2023-11-21T09:50:14;32.28;;;15.05;;
43670;SDS011;29267;50.906;7.248;2023-11-21T09:52:49;36.50;;;15.75;;
43670;SDS011;29267;50.906;7.248;2023-11-21T09:55:41;33.75;;;14.88;;
43670;SDS011;29267;50.906;7.248;2023-11-21T09:58:11;32.80;;;15.73;;
43670;SDS011;29267;50.906;7.248;2023-11-21T10:00:39;36.13;;;15.15;;
43670;SDS011;29267;50.906;7.248;2023-11-21T10:03:09;36.80;;;14.48;;
43670;SDS011;29267;50.906;7.248;2023-11-21T10:05:37;36.30;;;16.15;;
43670;SDS011;29267;50.906;7.248;2023-11-21T10:08:04;35.25;;;14.85;;
43670;SDS011;29267;50.906;7.248;2023-11-21T10:10:33;38.70;;;14.45;;
43670;SDS011;29267;50.906;7.248;2023-11-21T10:13:02;34.85;;;14.55;;
43670;SDS011;29267;50.906;7.248;2023-11-21T10:15:35;32.80;;;14.07;;
43670;SDS011;29267;50.906;7.248;2023-11-21T10:18:02;33.30;;;14.32;;
43670;SDS011;29267;50.906;7.248;2023-11-21T10:20:30;27.35;;;13.73;;
43670;SDS011;29267;50.906;7.248;2023-11-21T10:22:58;34.53;;;15.35;;
43670;SDS011;29267;50.906;7.248;2023-11-21T10:25:27;30.08;;;12.98;;
43670;SDS011;29267;50.906;7.248;2023-11-21T10:27:56;31.67;;;14.20;;
43670;SDS011;29267;50.906;7.248;2023-11-21T10:30:33;48.53;;;13.95;;
43670;SDS011;29267;50.906;7.248;2023-11-21T10:33:02;25.90;;;13.18;;
43670;SDS011;29267;50.906;7.248;2023-11-21T10:38:07;33.58;;;12.50;;
43670;SDS011;29267;50.906;7.248;2023-11-21T10:40:38;28.75;;;12.25;;
43670;SDS011;29267;50.906;7.248;2023-11-21T10:43:09;33.78;;;14.43;;
43670;SDS011;29267;50.906;7.248;2023-11-21T10:45:39;34.38;;;13.80;;
43670;SDS011;29267;50.906;7.248;2023-11-21T10:48:09;29.08;;;13.40;;
43670;SDS011;29267;50.906;7.248;2023-11-21T10:50:41;37.35;;;15.68;;
43670;SDS011;29267;50.906;7.248;2023-11-21T10:53:11;39.72;;;15.45;;
43670;SDS011;29267;50.906;7.248;2023-11-21T10:55:38;35.20;;;14.25;;
43670;SDS011;29267;50.906;7.248;2023-11-21T10:58:04;28.00;;;14.50;;
43670;SDS011;29267;50.906;7.248;2023-11-21T11:00:31;31.40;;;13.68;;
43670;SDS011;29267;50.906;7.248;2023-11-21T11:03:01;31.63;;;13.93;;
43670;SDS011;29267;50.906;7.248;2023-11-21T11:05:29;34.80;;;14.55;;
43670;SDS011;29267;50.906;7.248;2023-11-21T11:07:59;37.03;;;14.48;;
43670;SDS011;29267;50.906;7.248;2023-11-21T11:10:30;41.53;;;15.40;;
43670;SDS011;29267;50.906;7.248;2023-11-21T11:12:56;36.65;;;16.13;;
43670;SDS011;29267;50.906;7.248;2023-11-21T11:15:25;43.83;;;15.98;;
43670;SDS011;29267;50.906;7.248;2023-11-21T11:17:52;36.20;;;15.38;;
43670;SDS011;29267;50.906;7.248;2023-11-21T11:20:25;32.35;;;15.20;;
43670;SDS011;29267;50.906;7.248;2023-11-21T11:28:29;36.28;;;16.25;;
43670;SDS011;29267;50.906;7.248;2023-11-21T11:39:35;38.40;;;16.48;;
43670;SDS011;29267;50.906;7.248;2023-11-21T11:42:06;42.78;;;16.92;;
43670;SDS011;29267;50.906;7.248;2023-11-21T11:50:11;39.55;;;15.48;;
43670;SDS011;29267;50.906;7.248;2023-11-21T11:52:49;42.28;;;15.82;;
43670;SDS011;29267;50.906;7.248;2023-11-21T11:55:18;33.60;;;15.48;;
43670;SDS011;29267;50.906;7.248;2023-11-21T11:57:45;39.13;;;15.20;;
43670;SDS011;29267;50.906;7.248;2023-11-21T12:02:57;41.40;;;16.20;;
43670;SDS011;29267;50.906;7.248;2023-11-21T12:05:28;40.70;;;16.35;;
43670;SDS011;29267;50.906;7.248;2023-11-21T12:07:58;38.72;;;16.90;;
43670;SDS011;29267;50.906;7.248;2023-11-21T12:13:36;41.53;;;16.80;;
43670;SDS011;29267;50.906;7.248;2023-11-21T12:16:08;39.22;;;14.90;;
43670;SDS011;29267;50.906;7.248;2023-11-21T12:18:36;31.52;;;15.15;;
43670;SDS011;29267;50.906;7.248;2023-11-21T12:21:12;39.75;;;16.33;;
43670;SDS011;29267;50.906;7.248;2023-11-21T12:23:46;38.88;;;16.58;;
43670;SDS011;29267;50.906;7.248;2023-11-21T12:26:25;35.67;;;15.55;;
43670;SDS011;29267;50.906;7.248;2023-11-21T12:28:54;30.13;;;14.02;;
43670;SDS011;29267;50.906;7.248;2023-11-21T12:31:23;37.22;;;16.02;;
43670;SDS011;29267;50.906;7.248;2023-11-21T12:41:00;34.92;;;14.40;;
43670;SDS011;29267;50.906;7.248;2023-11-21T12:43:46;36.55;;;15.05;;
43670;SDS011;29267;50.906;7.248;2023-11-21T12:46:22;36.05;;;15.43;;
43670;SDS011;29267;50.906;7.248;2023-11-21T12:48:56;37.78;;;15.93;;
43670;SDS011;29267;50.906;7.248;2023-11-21T12:51:23;32.63;;;16.67;;
43670;SDS011;29267;50.906;7.248;2023-11-21T12:54:35;32.95;;;14.63;;
43670;SDS011;29267;50.906;7.248;2023-11-21T13:00:38;33.78;;;14.50;;
43670;SDS011;29267;50.906;7.248;2023-11-21T13:03:13;37.28;;;16.50;;
43670;SDS011;29267;50.906;7.248;2023-11-21T13:05:50;40.83;;;16.65;;
43670;SDS011;29267;50.906;7.248;2023-11-21T13:08:20;41.70;;;15.80;;
43670;SDS011;29267;50.906;7.248;2023-11-21T13:10:54;34.60;;;15.23;;
43670;SDS011;29267;50.906;7.248;2023-11-21T13:13:21;37.40;;;15.77;;
43670;SDS011;29267;50.906;7.248;2023-11-21T13:15:59;47.85;;;16.63;;
43670;SDS011;29267;50.906;7.248;2023-11-21T13:18:33;43.90;;;17.13;;
43670;SDS011;29267;50.906;7.248;2023-11-21T13:21:07;38.42;;;16.73;;
43670;SDS011;29267;50.906;7.248;2023-11-21T13:23:44;38.05;;;16.13;;
43670;SDS011;29267;50.906;7.248;2023-11-21T13:26:19;36.80;;;16.58;;
43670;SDS011;29267;50.906;7.248;2023-11-21T13:28:47;41.05;;;16.25;;
43670;SDS011;29267;50.906;7.248;2023-11-21T13:31:13;35.25;;;16.13;;
43670;SDS011;29267;50.906;7.248;2023-11-21T13:33:54;42.28;;;17.20;;
43670;SDS011;29267;50.906;7.248;2023-11-21T13:36:29;43.80;;;16.17;;
43670;SDS011;29267;50.906;7.248;2023-11-21T13:38:58;51.58;;;18.25;;
43670;SDS011;29267;50.906;7.248;2023-11-21T13:41:29;37.22;;;15.70;;
43670;SDS011;29267;50.906;7.248;2023-11-21T13:43:56;32.78;;;16.65;;
43670;SDS011;29267;50.906;7.248;2023-11-21T13:46:40;38.63;;;15.35;;
43670;SDS011;29267;50.906;7.248;2023-11-21T13:49:06;35.17;;;16.05;;
43670;SDS011;29267;50.906;7.248;2023-11-21T13:51:35;36.65;;;15.30;;
43670;SDS011;29267;50.906;7.248;2023-11-21T13:54:09;33.53;;;15.07;;
43670;SDS011;29267;50.906;7.248;2023-11-21T13:56:36;39.63;;;15.98;;
43670;SDS011;29267;50.906;7.248;2023-11-21T13:59:02;39.03;;;15.57;;
43670;SDS011;29267;50.906;7.248;2023-11-21T14:01:50;36.90;;;15.73;;
43670;SDS011;29267;50.906;7.248;2023-11-21T14:04:20;46.70;;;16.38;;
43670;SDS011;29267;50.906;7.248;2023-11-21T14:07:07;42.17;;;16.30;;
43670;SDS011;29267;50.906;7.248;2023-11-21T14:09:57;41.38;;;18.42;;
43670;SDS011;29267;50.906;7.248;2023-11-21T14:12:23;42.95;;;17.45;;
43670;SDS011;29267;50.906;7.248;2023-11-21T14:14:49;43.63;;;15.25;;
43670;SDS011;29267;50.906;7.248;2023-11-21T14:17:15;32.72;;;15.52;;
43670;SDS011;29267;50.906;7.248;2023-11-21T14:19:41;42.45;;;15.75;;
43670;SDS011;29267;50.906;7.248;2023-11-21T14:22:11;42.58;;;13.90;;
43670;SDS011;29267;50.906;7.248;2023-11-21T14:24:37;34.35;;;14.70;;
43670;SDS011;29267;50.906;7.248;2023-11-21T14:27:09;41.33;;;15.82;;
43670;SDS011;29267;50.906;7.248;2023-11-21T14:29:35;43.83;;;16.92;;
43670;SDS011;29267;50.906;7.248;2023-11-21T14:32:04;32.90;;;14.20;;
43670;SDS011;29267;50.906;7.248;2023-11-21T14:34:30;40.70;;;14.13;;
43670;SDS011;29267;50.906;7.248;2023-11-21T14:36:56;39.60;;;14.18;;
43670;SDS011;29267;50.906;7.248;2023-11-21T14:39:22;37.95;;;15.38;;
43670;SDS011;29267;50.906;7.248;2023-11-21T14:41:53;38.83;;;17.13;;
43670;SDS011;29267;50.906;7.248;2023-11-21T14:44:21;39.90;;;14.77;;
43670;SDS011;29267;50.906;7.248;2023-11-21T14:46:52;46.50;;;15.30;;
43670;SDS011;29267;50.906;7.248;2023-11-21T14:49:20;37.50;;;13.98;;
43670;SDS011;29267;50.906;7.248;2023-11-21T14:51:47;40.78;;;15.52;;
43670;SDS011;29267;50.906;7.248;2023-11-21T14:57:04;38.60;;;14.25;;
43670;SDS011;29267;50.906;7.248;2023-11-21T14:59:34;38.65;;;14.50;;
43670;SDS011;29267;50.906;7.248;2023-11-21T15:02:01;36.60;;;15.73;;
43670;SDS011;29267;50.906;7.248;2023-11-21T15:04:39;43.30;;;15.05;;
43670;SDS011;29267;50.906;7.248;2023-11-21T15:07:08;43.53;;;15.70;;
43670;SDS011;29267;50.906;7.248;2023-11-21T15:09:37;41.75;;;15.75;;
43670;SDS011;29267;50.906;7.248;2023-11-21T15:12:09;43.47;;;14.57;;
43670;SDS011;29267;50.906;7.248;2023-11-21T15:14:45;43.50;;;15.05;;
43670;SDS011;29267;50.906;7.248;2023-11-21T15:17:15;45.03;;;16.42;;